Time;durP1;ratioP1;P1;durP2;ratioP2;P2;SDS_P1;SDS_P2;PMS_P1;PMS_P2;Temp;Humidity;BMP_temperature;BMP_pressure;BME280_temperature;BME280_humidity;BME280_pressure;Samples;Min_cycle;Max_cycle;Signal;HPM_P1;HPM_P2
2022/11/28 00:02:02;;;;;;;13.13;9.65;;;6.80;99.90;;;;;;5022232;28;20124;-66
2022/11/28 00:04:28;;;;;;;13.25;10.32;;;5.30;99.90;;;;;;5038033;28;20080;-65
2022/11/28 00:06:54;;;;;;;11.55;9.02;;;6.80;99.90;;;;;;5038424;28;20045;-66
2022/11/28 00:09:20;;;;;;;11.45;10.07;;;6.30;99.90;;;;;;5019933;28;20044;-68
2022/11/28 00:11:47;;;;;;;11.77;9.95;;;6.80;99.90;;;;;;5034784;28;20045;-68
2022/11/28 00:14:15;;;;;;;12.32;9.77;;;6.90;99.90;;;;;;5038810;28;20083;-68
2022/11/28 00:16:41;;;;;;;11.32;9.55;;;6.90;99.90;;;;;;5020896;28;20044;-68
2022/11/28 00:19:07;;;;;;;9.15;7.47;;;6.80;99.90;;;;;;5051625;28;20081;-68
2022/11/28 00:21:34;;;;;;;10.02;8.75;;;6.80;99.90;;;;;;5020592;28;20048;-68
2022/11/28 00:24:00;;;;;;;8.88;6.95;;;6.40;99.90;;;;;;5036883;28;20132;-69
2022/11/28 00:26:38;;;;;;;9.43;6.55;;;6.40;99.90;;;;;;5057266;28;20044;-68
2022/11/28 00:29:05;;;;;;;11.07;7.72;;;5.60;99.90;;;;;;5040562;28;20072;-68
2022/11/28 00:31:34;;;;;;;8.00;7.05;;;6.50;99.90;;;;;;5040536;28;20120;-68
2022/11/28 00:34:00;;;;;;;8.95;7.10;;;6.60;99.90;;;;;;5022586;28;20139;-68
2022/11/28 00:36:28;;;;;;;8.65;6.07;;;6.70;99.90;;;;;;5048605;28;20040;-69
2022/11/28 00:38:54;;;;;;;7.00;5.63;;;5.80;99.90;;;;;;5039910;28;20273;-69
2022/11/28 00:41:22;;;;;;;6.15;5.28;;;6.40;99.90;;;;;;5038834;28;20044;-68
2022/11/28 00:43:49;;;;;;;10.55;7.65;;;5.70;99.90;;;;;;5040507;28;20471;-68
2022/11/28 00:46:17;;;;;;;7.97;6.57;;;5.60;99.90;;;;;;5040747;28;20383;-68
2022/11/28 00:48:43;;;;;;;9.57;7.10;;;6.80;99.90;;;;;;5040062;28;20037;-68
2022/11/28 00:51:18;;;;;;;12.25;7.18;;;5.50;99.90;;;;;;5039246;28;20052;-69
2022/11/28 00:53:46;;;;;;;7.47;5.55;;;5.90;99.90;;;;;;5024116;28;20098;-68
2022/11/28 00:56:17;;;;;;;9.10;7.10;;;6.20;99.90;;;;;;5021658;28;20505;-68
2022/11/28 00:58:43;;;;;;;9.68;7.85;;;6.80;99.90;;;;;;5039371;28;20032;-67
2022/11/28 01:01:15;;;;;;;10.23;7.45;;;5.80;99.90;;;;;;5041849;28;20460;-68
2022/11/28 01:03:42;;;;;;;10.70;7.85;;;6.50;99.90;;;;;;5041259;28;20401;-67
2022/11/28 01:06:09;;;;;;;8.65;7.65;;;6.90;99.90;;;;;;5021968;28;20106;-68
2022/11/28 01:08:35;;;;;;;10.65;7.80;;;5.40;99.90;;;;;;5023304;28;20036;-68
2022/11/28 01:11:02;;;;;;;8.38;7.53;;;5.70;99.90;;;;;;5024664;28;20070;-68
2022/11/28 01:13:28;;;;;;;10.45;8.68;;;5.50;99.90;;;;;;5021016;28;20438;-67
2022/11/28 01:15:54;;;;;;;10.77;9.05;;;6.30;99.90;;;;;;5024379;28;20770;-68
2022/11/28 01:18:20;;;;;;;12.25;8.75;;;6.00;99.90;;;;;;5023171;28;20040;-68
2022/11/28 01:20:46;;;;;;;12.80;9.45;;;5.80;99.90;;;;;;5021277;28;20090;-68
2022/11/28 01:23:12;;;;;;;11.48;9.43;;;5.80;99.90;;;;;;5040549;28;20047;-67
2022/11/28 01:25:37;;;;;;;10.50;8.65;;;6.20;99.90;;;;;;5041604;28;20078;-70
2022/11/28 01:28:03;;;;;;;11.57;9.00;;;6.40;99.90;;;;;;5019094;28;20090;-68
2022/11/28 01:30:29;;;;;;;13.73;9.48;;;5.50;99.90;;;;;;5039778;28;20045;-69
2022/11/28 01:32:55;;;;;;;9.63;7.70;;;6.20;99.90;;;;;;5040119;28;20052;-69
2022/11/28 01:35:20;;;;;;;11.75;9.00;;;6.70;99.90;;;;;;5022394;28;20085;-68
2022/11/28 01:37:46;;;;;;;10.30;8.75;;;6.70;99.90;;;;;;5023221;28;20134;-69
2022/11/28 01:40:12;;;;;;;12.32;8.55;;;6.50;99.90;;;;;;5057953;28;20064;-69
2022/11/28 01:42:38;;;;;;;9.35;8.43;;;5.80;99.90;;;;;;5039232;28;20040;-69
2022/11/28 01:45:12;;;;;;;10.80;9.20;;;6.10;99.90;;;;;;5036446;28;20051;-68
2022/11/28 01:47:38;;;;;;;12.77;8.82;;;6.00;99.90;;;;;;5056552;28;20175;-69
2022/11/28 01:50:05;;;;;;;11.43;9.23;;;5.70;99.90;;;;;;5022851;28;20067;-69
2022/11/28 01:52:32;;;;;;;11.68;9.23;;;5.90;99.90;;;;;;5038049;28;20075;-68
2022/11/28 01:55:01;;;;;;;12.05;8.95;;;5.90;99.90;;;;;;5039365;28;20374;-69
2022/11/28 01:57:27;;;;;;;14.40;9.40;;;6.80;99.90;;;;;;5010909;28;20048;-69
2022/11/28 02:00:00;;;;;;;12.85;10.15;;;6.60;99.90;;;;;;5034262;28;20056;-68
2022/11/28 02:02:51;;;;;;;10.95;8.85;;;5.80;99.90;;;;;;5038536;28;20051;-69
2022/11/28 02:05:20;;;;;;;13.68;9.23;;;6.50;99.90;;;;;;5056128;28;20094;-68
2022/11/28 02:07:46;;;;;;;11.40;9.48;;;5.80;99.90;;;;;;5037813;28;20052;-68
2022/11/28 02:10:22;;;;;;;11.88;9.48;;;6.90;99.90;;;;;;5023433;28;20402;-68
2022/11/28 02:13:09;;;;;;;13.45;9.55;;;5.80;99.90;;;;;;5039153;28;20048;-69
2022/11/28 02:16:01;;;;;;;14.13;10.57;;;5.70;99.90;;;;;;5034735;28;20570;-67
2022/11/28 02:18:39;;;;;;;13.98;10.45;;;6.70;99.90;;;;;;5039724;28;20514;-69
2022/11/28 02:21:26;;;;;;;15.75;11.52;;;6.20;99.90;;;;;;5039142;28;20127;-69
2022/11/28 02:24:26;;;;;;;14.15;10.95;;;6.00;99.90;;;;;;5055685;28;20110;-68
2022/11/28 02:27:15;;;;;;;13.00;11.00;;;6.10;99.90;;;;;;5038048;28;20068;-68
2022/11/28 02:30:11;;;;;;;18.33;12.93;;;5.90;99.90;;;;;;5055935;28;20064;-68
2022/11/28 02:32:40;;;;;;;21.17;14.77;;;7.10;99.90;;;;;;5037406;28;20674;-68
2022/11/28 02:35:09;;;;;;;21.48;15.45;;;6.90;99.90;;;;;;5039299;28;20097;-68
2022/11/28 02:37:52;;;;;;;17.35;13.57;;;6.20;99.90;;;;;;5021164;28;20492;-68
2022/11/28 02:40:31;;;;;;;;;;;6.00;99.90;;;;;;5039476;28;20553;-68
2022/11/28 02:43:51;;;;;;;20.98;16.58;;;5.40;99.90;;;;;;5023550;28;20451;-69
2022/11/28 02:46:28;;;;;;;28.73;18.67;;;5.90;99.90;;;;;;4957378;28;20053;-68
2022/11/28 02:49:04;;;;;;;32.78;20.45;;;6.70;99.90;;;;;;5021525;28;20048;-68
2022/11/28 02:51:40;;;;;;;30.40;21.38;;;6.90;99.90;;;;;;5039764;28;20135;-67
2022/11/28 02:54:10;;;;;;;25.27;18.55;;;5.10;99.90;;;;;;5019894;28;20032;-68
2022/11/28 02:56:36;;;;;;;28.27;18.33;;;6.80;99.90;;;;;;5038745;28;20070;-68
2022/11/28 02:59:02;;;;;;;37.05;22.88;;;5.10;99.90;;;;;;5022537;28;20040;-69
2022/11/28 03:01:35;;;;;;;28.75;20.17;;;6.80;99.90;;;;;;5036925;28;20040;-69
2022/11/28 03:04:24;;;;;;;30.45;20.77;;;6.40;99.90;;;;;;5024472;28;20449;-69
2022/11/28 03:07:25;;;;;;;33.75;24.85;;;6.90;99.90;;;;;;5037943;28;20055;-69
2022/11/28 03:10:21;;;;;;;33.00;22.85;;;7.00;99.90;;;;;;5017200;28;20044;-68
2022/11/28 03:13:01;;;;;;;32.03;22.95;;;7.00;99.90;;;;;;5034637;28;20059;-69
2022/11/28 03:15:36;;;;;;;29.17;21.23;;;6.90;99.90;;;;;;5022535;28;20040;-68
2022/11/28 03:18:19;;;;;;;35.65;25.58;;;6.50;99.90;;;;;;5032105;28;20545;-69
2022/11/28 03:21:01;;;;;;;30.73;22.98;;;5.20;99.90;;;;;;5033060;28;20232;-67
2022/11/28 03:23:43;;;;;;;32.25;23.55;;;5.70;99.90;;;;;;5033671;28;20218;-68
2022/11/28 03:26:19;;;;;;;28.30;19.95;;;5.00;99.90;;;;;;5033672;28;20079;-68
2022/11/28 03:29:01;;;;;;;30.00;20.38;;;7.10;99.90;;;;;;5033646;28;20068;-69
2022/11/28 03:31:41;;;;;;;27.27;19.80;;;5.00;99.90;;;;;;5033525;28;20106;-69
2022/11/28 03:34:12;;;;;;;29.75;22.63;;;5.00;99.90;;;;;;5033015;28;20065;-69
2022/11/28 03:36:44;;;;;;;30.58;22.45;;;7.10;99.90;;;;;;5019549;28;20585;-68
2022/11/28 03:39:16;;;;;;;33.67;22.77;;;7.10;99.90;;;;;;5035641;28;20195;-68
2022/11/28 03:42:20;;;;;;;31.13;22.38;;;5.00;99.90;;;;;;5034989;28;20044;-68
2022/11/28 03:45:08;;;;;;;33.47;24.10;;;7.10;99.90;;;;;;5032034;28;20063;-69
2022/11/28 03:47:40;;;;;;;33.55;23.88;;;6.30;99.90;;;;;;5032995;28;20052;-68
2022/11/28 03:50:32;;;;;;;32.42;23.92;;;6.50;99.90;;;;;;5035853;28;20422;-67
2022/11/28 03:53:03;;;;;;;31.83;24.23;;;6.90;99.90;;;;;;5012556;28;20048;-69
2022/11/28 03:55:33;;;;;;;35.15;24.40;;;5.70;99.90;;;;;;5033727;28;20399;-69
2022/11/28 03:58:19;;;;;;;32.33;24.45;;;7.00;99.90;;;;;;5035112;28;20513;-69
2022/11/28 04:01:18;;;;;;;35.58;22.85;;;5.80;99.90;;;;;;5033377;28;20053;-69
2022/11/28 04:04:05;;;;;;;30.02;22.45;;;5.30;99.90;;;;;;5002049;28;20100;-69
2022/11/28 04:06:49;;;;;;;28.10;20.85;;;6.90;99.90;;;;;;5032608;28;20888;-69
2022/11/28 04:09:18;;;;;;;27.08;21.42;;;7.00;99.90;;;;;;5012698;28;20129;-69
2022/11/28 04:11:52;;;;;;;30.55;21.10;;;5.30;99.90;;;;;;5016794;28;20037;-68
2022/11/28 04:14:33;;;;;;;23.00;18.73;;;6.00;99.90;;;;;;5034884;28;20130;-68
2022/11/28 04:17:07;;;;;;;31.08;19.90;;;5.70;99.90;;;;;;5035088;28;20399;-68
2022/11/28 04:19:40;;;;;;;25.73;19.67;;;6.20;99.90;;;;;;5033022;28;20271;-68
2022/11/28 04:22:18;;;;;;;26.00;17.58;;;7.10;99.90;;;;;;5032822;28;20053;-69
2022/11/28 04:24:53;;;;;;;27.08;20.85;;;5.90;99.90;;;;;;5034314;28;20433;-69
2022/11/28 04:27:34;;;;;;;22.38;18.80;;;5.60;99.90;;;;;;5016116;28;20067;-68
2022/11/28 04:30:03;;;;;;;26.70;20.45;;;6.40;99.90;;;;;;5032793;28;20049;-68
2022/11/28 04:32:31;;;;;;;24.70;17.38;;;7.10;99.90;;;;;;5033560;28;20110;-68
2022/11/28 04:35:05;;;;;;;21.92;18.30;;;5.90;99.90;;;;;;5032539;28;20049;-68
2022/11/28 04:37:34;;;;;;;26.67;19.92;;;7.00;99.90;;;;;;5015431;28;20049;-69
2022/11/28 04:40:00;;;;;;;27.67;19.70;;;5.50;99.90;;;;;;5034755;28;20136;-69
2022/11/28 04:42:34;;;;;;;26.05;19.05;;;5.60;99.90;;;;;;5018902;28;20029;-68
2022/11/28 04:45:13;;;;;;;26.75;19.10;;;7.10;99.90;;;;;;5021890;28;20041;-69
2022/11/28 04:47:39;;;;;;;24.13;19.80;;;7.60;99.90;;;;;;5033877;28;20418;-68
2022/11/28 04:50:06;;;;;;;23.60;19.65;;;7.60;99.90;;;;;;5032566;28;20223;-69
2022/11/28 04:52:46;;;;;;;23.52;16.05;;;6.00;99.90;;;;;;5020805;28;20044;-68
2022/11/28 04:55:34;;;;;;;27.65;20.35;;;5.80;99.90;;;;;;5033580;28;20510;-68
2022/11/28 04:58:40;;;;;;;22.05;18.50;;;6.60;99.90;;;;;;5033011;28;20491;-68
2022/11/28 05:01:10;;;;;;;22.27;16.35;;;7.30;99.90;;;;;;5033607;28;20143;-66
2022/11/28 05:03:38;;;;;;;20.67;16.13;;;6.00;99.90;;;;;;5035367;28;20041;-66
2022/11/28 05:06:04;;;;;;;25.88;21.02;;;6.30;99.90;;;;;;5032974;28;20044;-66
2022/11/28 05:08:30;;;;;;;27.15;21.20;;;5.70;99.90;;;;;;5036439;28;20520;-68
2022/11/28 05:10:55;;;;;;;25.50;20.40;;;6.60;99.90;;;;;;5037374;28;20045;-68
2022/11/28 05:13:21;;;;;;;28.20;23.38;;;6.40;99.90;;;;;;5035753;28;20531;-70
2022/11/28 05:15:47;;;;;;;29.38;21.83;;;5.70;99.90;;;;;;5021203;28;20041;-67
2022/11/28 05:18:12;;;;;;;32.15;25.42;;;7.40;99.90;;;;;;5020884;28;20041;-67
2022/11/28 05:20:39;;;;;;;29.00;23.10;;;6.20;99.90;;;;;;5019272;28;20055;-67
2022/11/28 05:23:05;;;;;;;28.25;21.55;;;5.80;99.90;;;;;;5037490;28;20360;-67
2022/11/28 05:25:31;;;;;;;34.22;24.15;;;6.90;99.90;;;;;;5018276;28;20294;-68
2022/11/28 05:27:56;;;;;;;29.08;23.98;;;6.50;99.90;;;;;;5052283;28;20037;-68
2022/11/28 05:30:22;;;;;;;38.78;29.83;;;6.10;99.90;;;;;;5036670;28;20518;-68
2022/11/28 05:32:48;;;;;;;41.40;30.08;;;7.80;99.90;;;;;;5008243;28;20045;-68
2022/11/28 05:35:14;;;;;;;33.33;25.30;;;6.70;99.90;;;;;;5036666;28;20355;-68
2022/11/28 05:37:40;;;;;;;35.60;29.02;;;6.90;99.90;;;;;;5020525;28;20045;-68
2022/11/28 05:40:06;;;;;;;40.70;30.92;;;7.30;99.90;;;;;;5020904;28;20041;-67
2022/11/28 05:42:33;;;;;;;40.25;30.08;;;7.70;99.90;;;;;;5017673;28;20069;-68
2022/11/28 05:44:59;;;;;;;41.30;32.30;;;6.50;99.90;;;;;;5019845;28;20094;-67
2022/11/28 05:47:25;;;;;;;40.88;30.38;;;7.20;99.90;;;;;;5035838;28;20049;-68
2022/11/28 05:49:50;;;;;;;45.28;35.17;;;6.60;99.90;;;;;;5053086;28;20118;-68
2022/11/28 05:52:16;;;;;;;43.80;34.33;;;6.50;99.90;;;;;;5034991;28;20356;-67
2022/11/28 05:54:42;;;;;;;55.92;40.13;;;7.50;99.90;;;;;;5036206;28;20045;-67
2022/11/28 05:57:08;;;;;;;49.65;37.67;;;7.60;99.90;;;;;;5034015;28;20510;-68
2022/11/28 05:59:34;;;;;;;48.13;37.33;;;6.20;99.90;;;;;;5035451;28;20722;-67
2022/11/28 06:01:59;;;;;;;52.55;40.38;;;6.60;99.90;;;;;;5035882;28;20519;-67
2022/11/28 06:04:25;;;;;;;56.85;42.40;;;6.30;99.90;;;;;;5035542;28;20131;-67
2022/11/28 06:06:51;;;;;;;55.78;40.75;;;6.90;99.90;;;;;;5017702;28;20064;-67
2022/11/28 06:09:17;;;;;;;61.58;41.47;;;7.80;99.90;;;;;;5020405;28;20065;-68
2022/11/28 06:11:43;;;;;;;57.75;42.65;;;6.40;99.90;;;;;;5035554;28;20041;-67
2022/11/28 06:14:09;;;;;;;56.20;42.08;;;7.20;99.90;;;;;;5014676;28;20059;-67
2022/11/28 06:16:35;;;;;;;57.30;41.25;;;7.50;99.90;;;;;;5034513;28;20385;-68
2022/11/28 06:19:03;;;;;;;64.47;45.00;;;8.00;99.90;;;;;;5036038;28;20182;-68
2022/11/28 06:21:30;;;;;;;57.45;42.97;;;5.80;99.90;;;;;;5017664;28;20041;-68
2022/11/28 06:23:58;;;;;;;58.05;43.13;;;6.10;99.90;;;;;;5035216;28;20442;-67
2022/11/28 06:26:25;;;;;;;56.90;41.75;;;7.60;99.90;;;;;;5019196;28;20170;-69
2022/11/28 06:28:51;;;;;;;63.40;43.22;;;6.20;99.90;;;;;;5031831;28;20475;-68
2022/11/28 06:31:22;;;;;;;60.55;41.05;;;6.30;99.90;;;;;;5018430;28;20033;-68
2022/11/28 06:33:48;;;;;;;64.25;43.85;;;6.40;99.90;;;;;;5008368;28;20044;-67
2022/11/28 06:36:15;;;;;;;59.15;44.67;;;6.10;99.90;;;;;;5018116;28;20365;-68
2022/11/28 06:38:41;;;;;;;62.88;44.10;;;7.30;99.90;;;;;;5020512;28;20044;-68
2022/11/28 06:41:10;;;;;;;63.92;45.20;;;7.80;99.90;;;;;;5034487;28;20037;-69
2022/11/28 06:43:36;;;;;;;76.03;49.40;;;6.00;99.90;;;;;;5034817;28;20033;-68
2022/11/28 06:46:02;;;;;;;61.83;46.05;;;7.40;99.90;;;;;;5015027;28;20302;-68
2022/11/28 06:48:28;;;;;;;69.65;47.22;;;6.60;99.90;;;;;;5018200;28;20041;-68
2022/11/28 06:51:01;;;;;;;68.93;48.00;;;6.00;99.90;;;;;;5034232;28;20195;-68
2022/11/28 06:53:27;;;;;;;69.50;46.00;;;8.00;99.90;;;;;;5031868;28;20353;-68
2022/11/28 06:55:53;;;;;;;69.45;47.60;;;8.10;99.90;;;;;;5018083;28;20487;-68
2022/11/28 06:58:19;;;;;;;64.00;44.83;;;8.10;99.90;;;;;;5018600;28;20053;-69
2022/11/28 07:00:44;;;;;;;80.03;52.42;;;7.20;99.90;;;;;;5015553;28;20424;-68
2022/11/28 07:03:11;;;;;;;80.72;53.88;;;7.30;99.90;;;;;;5034295;28;20517;-68
2022/11/28 07:05:37;;;;;;;78.10;50.88;;;6.40;99.90;;;;;;5035386;28;20219;-68
2022/11/28 07:08:05;;;;;;;75.07;50.72;;;6.40;99.90;;;;;;5017314;28;20048;-69
2022/11/28 07:10:31;;;;;;;73.10;49.92;;;7.30;99.90;;;;;;5035736;28;20045;-68
2022/11/28 07:12:59;;;;;;;73.70;49.40;;;8.00;99.90;;;;;;5042486;28;20545;-67
2022/11/28 07:15:25;;;;;;;78.38;51.97;;;7.90;99.90;;;;;;5037107;28;20127;-68
2022/11/28 07:17:51;;;;;;;78.57;51.55;;;7.60;99.90;;;;;;5020367;28;20062;-67
2022/11/28 07:20:17;;;;;;;76.95;53.53;;;7.30;99.90;;;;;;5021747;28;20048;-68
2022/11/28 07:22:43;;;;;;;78.68;52.83;;;6.60;99.90;;;;;;5037842;28;20050;-67
2022/11/28 07:25:09;;;;;;;79.72;55.10;;;6.20;99.90;;;;;;5036021;28;20048;-68
2022/11/28 07:27:35;;;;;;;76.38;51.70;;;8.40;99.90;;;;;;5053924;28;20424;-67
2022/11/28 07:30:01;;;;;;;85.57;57.75;;;8.50;99.90;;;;;;5038349;28;20052;-68
2022/11/28 07:32:27;;;;;;;71.90;49.50;;;8.40;99.90;;;;;;5005996;28;20055;-67
2022/11/28 07:34:53;;;;;;;80.05;55.28;;;7.10;99.90;;;;;;5004724;28;20562;-67
2022/11/28 07:37:19;;;;;;;80.60;54.85;;;6.60;99.90;;;;;;5039213;28;20482;-67
2022/11/28 07:39:45;;;;;;;70.47;52.85;;;7.50;99.90;;;;;;5020054;28;20059;-67
2022/11/28 07:42:10;;;;;;;71.35;49.95;;;7.80;99.90;;;;;;5038090;28;20044;-68
2022/11/28 07:44:36;;;;;;;73.32;52.60;;;6.50;99.90;;;;;;5021983;28;20044;-67
2022/11/28 07:47:02;;;;;;;74.68;53.88;;;8.50;99.90;;;;;;5035502;28;20481;-68
2022/11/28 07:49:28;;;;;;;69.68;50.85;;;8.20;99.90;;;;;;5020574;28;20082;-68
2022/11/28 07:51:54;;;;;;;58.45;42.50;;;7.80;99.90;;;;;;5038877;28;20055;-67
2022/11/28 07:54:19;;;;;;;64.43;49.15;;;7.90;99.90;;;;;;5037713;28;20028;-68
2022/11/28 07:56:45;;;;;;;54.35;42.70;;;8.50;99.90;;;;;;5020548;28;20538;-68
2022/11/28 07:59:11;;;;;;;60.17;47.15;;;7.80;99.90;;;;;;5004590;28;20044;-68
2022/11/28 08:01:36;;;;;;;62.33;44.70;;;6.50;99.90;;;;;;5037647;28;20052;-67
2022/11/28 08:04:06;;;;;;;57.65;45.15;;;8.50;99.90;;;;;;5035532;28;20419;-69
2022/11/28 08:06:36;;;;;;;57.65;44.42;;;7.90;99.90;;;;;;5036928;28;20052;-69
2022/11/28 08:09:03;;;;;;;61.15;47.00;;;8.20;99.90;;;;;;5022169;28;20304;-68
2022/11/28 08:11:29;;;;;;;52.63;42.63;;;6.90;99.90;;;;;;5035770;28;20040;-67
2022/11/28 08:13:56;;;;;;;56.78;39.17;;;7.90;99.90;;;;;;5026682;28;20072;-67
2022/11/28 08:16:23;;;;;;;52.78;38.65;;;6.50;99.90;;;;;;5037857;28;20040;-67
2022/11/28 08:18:50;;;;;;;59.30;45.25;;;7.70;99.90;;;;;;5018709;28;20144;-67
2022/11/28 08:21:25;;;;;;;60.53;44.05;;;6.90;99.90;;;;;;5036704;28;20105;-67
2022/11/28 08:23:52;;;;;;;59.65;44.08;;;7.80;99.90;;;;;;5038237;28;20124;-66
2022/11/28 08:26:22;;;;;;;54.67;40.35;;;7.20;99.90;;;;;;5026574;28;20094;-66
2022/11/28 08:28:49;;;;;;;57.90;41.13;;;6.90;99.90;;;;;;5037964;28;20033;-67
2022/11/28 08:31:24;;;;;;;60.17;43.65;;;6.90;99.90;;;;;;5038409;28;20435;-68
2022/11/28 08:33:51;;;;;;;62.70;43.08;;;7.10;99.90;;;;;;5036164;28;20295;-68
2022/11/28 08:36:18;;;;;;;52.53;38.78;;;6.90;99.90;;;;;;5035950;28;20059;-68
2022/11/28 08:38:46;;;;;;;48.58;35.50;;;6.90;99.90;;;;;;5037535;28;20114;-68
2022/11/28 08:41:14;;;;;;;56.88;40.80;;;8.60;99.90;;;;;;5035889;28;20037;-67
2022/11/28 08:43:41;;;;;;;54.72;39.42;;;8.00;99.90;;;;;;5043500;28;20040;-68
2022/11/28 08:46:10;;;;;;;56.75;39.90;;;8.30;99.90;;;;;;5041610;28;20754;-67
2022/11/28 08:48:36;;;;;;;56.65;41.42;;;8.20;99.90;;;;;;5040416;28;20044;-67
2022/11/28 08:51:02;;;;;;;53.80;39.03;;;8.10;99.90;;;;;;5038501;28;20193;-68
2022/11/28 08:53:28;;;;;;;59.00;42.67;;;8.70;99.90;;;;;;5041309;28;20103;-68
2022/11/28 08:55:55;;;;;;;62.55;42.13;;;7.70;99.90;;;;;;5040706;28;20127;-68
2022/11/28 08:58:21;;;;;;;56.45;40.08;;;7.00;99.90;;;;;;5023013;28;20048;-68
2022/11/28 09:00:47;;;;;;;51.28;35.60;;;7.90;99.90;;;;;;5059316;28;20047;-68
2022/11/28 09:03:15;;;;;;;47.30;34.17;;;7.00;99.90;;;;;;5040744;28;20182;-68
2022/11/28 09:05:44;;;;;;;57.80;37.78;;;8.20;99.90;;;;;;5039460;28;20047;-68
2022/11/28 09:08:09;;;;;;;51.13;34.72;;;8.40;99.90;;;;;;5038391;28;20040;-68
2022/11/28 09:10:37;;;;;;;50.70;34.42;;;8.70;99.90;;;;;;5041303;28;20059;-69
2022/11/28 09:13:04;;;;;;;48.90;33.63;;;7.20;99.90;;;;;;5038727;28;20059;-67
2022/11/28 09:15:30;;;;;;;44.83;31.38;;;6.90;99.90;;;;;;5041882;28;20520;-68
2022/11/28 09:17:55;;;;;;;48.30;33.95;;;6.70;99.90;;;;;;5041170;28;20048;-68
2022/11/28 09:20:21;;;;;;;40.85;27.98;;;7.30;99.90;;;;;;5006235;28;20036;-69
2022/11/28 09:22:48;;;;;;;44.63;32.30;;;6.90;99.90;;;;;;5005471;28;20064;-67
2022/11/28 09:25:16;;;;;;;38.40;27.85;;;7.30;99.90;;;;;;5058890;28;20517;-68
2022/11/28 09:27:42;;;;;;;47.97;33.40;;;7.00;99.90;;;;;;5038567;28;20036;-68
2022/11/28 09:30:08;;;;;;;50.70;33.83;;;6.70;99.90;;;;;;5040047;28;20036;-68
2022/11/28 09:32:35;;;;;;;49.28;33.15;;;8.60;99.90;;;;;;5040985;28;20588;-67
2022/11/28 09:35:01;;;;;;;56.13;34.58;;;8.80;99.90;;;;;;5039622;28;20155;-67
2022/11/28 09:37:28;;;;;;;45.97;29.38;;;8.50;99.90;;;;;;5039864;28;20044;-68
2022/11/28 09:39:54;;;;;;;46.47;32.15;;;6.90;99.90;;;;;;5037878;28;20052;-67
2022/11/28 09:42:38;;;;;;;52.40;33.58;;;8.40;99.90;;;;;;5039965;28;20036;-67
2022/11/28 09:45:06;;;;;;;46.92;31.30;;;6.90;99.90;;;;;;5039732;28;20053;-68
2022/11/28 09:47:35;;;;;;;49.00;32.08;;;7.20;99.90;;;;;;5040724;28;20120;-67
2022/11/28 09:50:14;;;;;;;36.47;25.70;;;8.80;99.90;;;;;;5039035;28;20064;-67
2022/11/28 09:53:15;;;;;;;48.95;32.85;;;7.70;99.90;;;;;;5040087;28;20040;-68
2022/11/28 09:55:49;;;;;;;45.65;30.85;;;8.30;99.90;;;;;;5031081;28;20045;-68
2022/11/28 09:58:38;;;;;;;42.90;28.35;;;8.30;99.90;;;;;;5028115;28;20410;-68
2022/11/28 10:01:17;;;;;;;44.35;30.13;;;7.50;99.90;;;;;;5038992;28;20056;-67
2022/11/28 10:04:11;;;;;;;38.50;27.58;;;7.00;99.90;;;;;;5040203;28;20541;-66
2022/11/28 10:06:46;;;;;;;42.45;29.58;;;8.00;99.90;;;;;;5035726;28;20068;-67
2022/11/28 10:09:30;;;;;;;37.38;27.80;;;8.40;99.90;;;;;;5056580;28;20377;-67
2022/11/28 10:12:04;;;;;;;38.17;23.95;;;8.10;99.90;;;;;;5019556;28;20136;-67
2022/11/28 10:14:53;;;;;;;38.47;27.40;;;8.00;99.90;;;;;;5037688;28;20064;-67
2022/11/28 10:17:35;;;;;;;30.63;22.23;;;7.20;99.90;;;;;;5058000;28;20071;-67
2022/11/28 10:20:03;;;;;;;40.13;28.65;;;8.50;99.90;;;;;;5056169;28;20458;-67
2022/11/28 10:22:45;;;;;;;32.50;23.08;;;8.90;99.90;;;;;;5036739;28;20051;-67
2022/11/28 10:25:36;;;;;;;36.97;25.25;;;8.50;99.90;;;;;;5021538;28;20445;-67
2022/11/28 10:28:37;;;;;;;36.53;26.10;;;8.70;99.90;;;;;;5034520;28;20361;-68
2022/11/28 10:31:10;;;;;;;35.38;25.75;;;8.10;99.90;;;;;;5037513;28;20036;-67
2022/11/28 10:34:01;;;;;;;40.50;27.83;;;7.00;99.90;;;;;;5045252;28;20442;-67
2022/11/28 10:36:32;;;;;;;32.10;23.70;;;7.20;99.90;;;;;;5027912;28;20624;-68
2022/11/28 10:39:01;;;;;;;33.72;25.83;;;7.10;99.90;;;;;;5036971;28;20491;-68
2022/11/28 10:41:38;;;;;;;31.40;24.20;;;7.30;99.90;;;;;;5036681;28;20041;-68
2022/11/28 10:44:13;;;;;;;29.92;23.88;;;8.30;99.90;;;;;;5036040;28;20044;-68
2022/11/28 10:46:48;;;;;;;33.97;25.77;;;7.10;99.90;;;;;;5035973;28;20786;-67
2022/11/28 10:50:05;;;;;;;39.50;26.27;;;6.90;99.90;;;;;;5022861;28;20041;-67
2022/11/28 10:53:08;;;;;;;32.85;23.70;;;7.00;99.90;;;;;;4973559;28;20511;-67
2022/11/28 10:55:58;;;;;;;36.08;25.80;;;8.90;99.90;;;;;;5020470;28;20052;-67
2022/11/28 10:59:02;;;;;;;34.08;25.85;;;8.60;99.90;;;;;;5023552;28;20044;-66
2022/11/28 11:01:38;;;;;;;35.33;24.33;;;8.90;99.90;;;;;;4980567;28;20048;-66
2022/11/28 11:04:05;;;;;;;36.70;25.95;;;8.30;99.90;;;;;;5043794;28;20139;-68
2022/11/28 11:06:30;;;;;;;32.88;24.23;;;7.40;99.90;;;;;;5044563;28;20131;-66
2022/11/28 11:08:56;;;;;;;30.13;22.63;;;6.90;99.90;;;;;;5010783;28;20048;-66
2022/11/28 11:11:33;;;;;;;33.08;25.13;;;8.40;99.90;;;;;;5027331;28;20406;-67
2022/11/28 11:14:05;;;;;;;34.58;24.27;;;6.90;99.90;;;;;;5023576;28;20082;-66
2022/11/28 11:16:55;;;;;;;28.57;22.97;;;8.50;99.90;;;;;;5041662;28;20044;-67
2022/11/28 11:19:33;;;;;;;32.67;23.83;;;8.90;99.90;;;;;;5025008;28;20044;-66
2022/11/28 11:22:27;;;;;;;33.75;24.50;;;9.00;99.90;;;;;;5042285;28;20124;-65
2022/11/28 11:25:13;;;;;;;40.70;28.75;;;7.90;99.90;;;;;;5057366;28;20120;-66
2022/11/28 11:27:56;;;;;;;39.13;25.40;;;9.00;99.90;;;;;;5046899;28;20482;-67
2022/11/28 11:30:25;;;;;;;26.63;21.35;;;8.10;99.90;;;;;;5037279;28;20664;-67
2022/11/28 11:32:56;;;;;;;26.38;21.13;;;9.00;99.90;;;;;;5018677;28;20133;-67
2022/11/28 11:35:28;;;;;;;28.90;23.02;;;7.20;99.90;;;;;;5036166;28;20078;-68
2022/11/28 11:38:22;;;;;;;30.05;23.77;;;9.10;99.90;;;;;;5036958;28;20087;-68
2022/11/28 11:40:51;;;;;;;33.03;24.60;;;7.40;99.90;;;;;;5036624;28;20054;-67
2022/11/28 11:43:30;;;;;;;30.92;23.27;;;7.70;99.90;;;;;;5037601;28;20154;-67
2022/11/28 11:46:14;;;;;;;27.42;21.73;;;7.50;99.90;;;;;;5034976;28;20036;-67
2022/11/28 11:48:48;;;;;;;25.80;20.90;;;7.00;99.90;;;;;;5036806;28;20095;-67
2022/11/28 11:51:31;;;;;;;27.52;20.83;;;8.30;99.90;;;;;;5037830;28;20044;-67
2022/11/28 11:54:12;;;;;;;24.60;20.60;;;7.60;99.90;;;;;;5037142;28;20036;-67
2022/11/28 11:56:41;;;;;;;30.08;22.40;;;8.80;99.90;;;;;;5037302;28;20109;-67
2022/11/28 11:59:21;;;;;;;26.80;22.67;;;8.80;99.90;;;;;;5021522;28;20300;-67
2022/11/28 12:01:50;;;;;;;28.70;23.13;;;7.00;99.90;;;;;;5034654;28;20048;-68
2022/11/28 12:04:28;;;;;;;24.42;19.15;;;9.20;99.90;;;;;;5036893;28;20490;-68
2022/11/28 12:06:57;;;;;;;26.95;21.05;;;7.30;99.90;;;;;;5038114;28;20194;-68
2022/11/28 12:09:46;;;;;;;27.30;22.70;;;7.30;99.90;;;;;;5037285;28;20036;-68
2022/11/28 12:12:25;;;;;;;26.30;22.98;;;7.30;99.90;;;;;;5020940;28;20046;-69
2022/11/28 12:14:51;;;;;;;27.90;21.90;;;8.90;99.90;;;;;;5036752;28;20048;-68
2022/11/28 12:17:20;;;;;;;27.73;22.98;;;8.70;99.90;;;;;;5034620;28;20451;-70
2022/11/28 12:20:04;;;;;;;26.70;21.35;;;8.90;99.90;;;;;;5055826;28;20113;-68
2022/11/28 12:22:29;;;;;;;27.65;23.10;;;8.40;99.90;;;;;;5025595;28;20093;-68
2022/11/28 12:25:23;;;;;;;33.05;24.67;;;7.10;99.90;;;;;;5040944;28;20468;-68
2022/11/28 12:28:22;;;;;;;30.90;23.85;;;7.20;99.90;;;;;;5041469;28;20050;-68
2022/11/28 12:31:13;;;;;;;28.45;22.50;;;7.50;99.90;;;;;;5024526;28;20032;-68
2022/11/28 12:33:44;;;;;;;27.33;21.90;;;8.20;99.90;;;;;;5036661;28;20473;-68
2022/11/28 12:36:19;;;;;;;31.38;23.60;;;7.40;99.90;;;;;;5042319;28;20564;-68
2022/11/28 12:39:03;;;;;;;28.80;23.85;;;9.20;99.90;;;;;;5040632;28;20784;-68
2022/11/28 12:41:38;;;;;;;26.55;21.88;;;8.30;99.90;;;;;;5023523;28;20136;-68
2022/11/28 12:44:09;;;;;;;24.77;21.35;;;8.50;99.90;;;;;;5057396;28;20476;-68
2022/11/28 12:46:41;;;;;;;30.70;23.90;;;8.80;99.90;;;;;;5041439;28;20125;-68
2022/11/28 12:49:29;;;;;;;32.50;24.42;;;9.30;99.90;;;;;;5037085;28;20380;-67
2022/11/28 12:51:55;;;;;;;28.05;21.65;;;8.50;99.90;;;;;;5040494;28;20044;-67
2022/11/28 12:54:46;;;;;;;33.65;24.67;;;7.20;99.90;;;;;;5041137;28;20025;-68
2022/11/28 12:57:45;;;;;;;28.85;22.27;;;7.40;99.90;;;;;;5039039;28;20297;-67
2022/11/28 13:00:23;;;;;;;29.83;22.42;;;7.20;99.90;;;;;;5040453;28;20182;-67
2022/11/28 13:03:11;;;;;;;34.05;25.15;;;7.80;99.90;;;;;;5058295;28;20106;-68
2022/11/28 13:06:10;;;;;;;37.67;27.20;;;7.90;99.90;;;;;;5020469;28;20036;-67
2022/11/28 13:08:44;;;;;;;32.08;24.92;;;7.40;99.90;;;;;;5040582;28;20505;-67